Time;durP1;ratioP1;P1;durP2;ratioP2;P2;SDS_P1;SDS_P2;PMS_P1;PMS_P2;Temp;Humidity;BMP_temperature;BMP_pressure;BME280_temperature;BME280_humidity;BME280_pressure;Samples;Min_cycle;Max_cycle;Signal;HPM_P1;HPM_P2
2022/04/17 00:01:02;;;;;;;1.85;1.00;;;;;;;2.79;46.88;100216.06;5051844;28;20025;-66
2022/04/17 00:03:30;;;;;;;2.70;1.23;;;;;;;2.81;46.48;100223.91;5051875;28;20029;-65
2022/04/17 00:05:56;;;;;;;2.88;1.10;;;;;;;2.65;46.36;100227.22;5052001;28;20039;-64
2022/04/17 00:08:21;;;;;;;1.55;0.70;;;;;;;2.90;46.16;100228.81;5050359;28;20025;-65
2022/04/17 00:10:47;;;;;;;1.65;0.80;;;;;;;2.76;45.66;100228.53;5051363;28;20036;-64
2022/04/17 00:13:14;;;;;;;6.90;1.20;;;;;;;2.52;47.09;100228.63;5050820;28;20025;-64
2022/04/17 00:15:40;;;;;;;3.72;1.23;;;;;;;2.53;46.96;100232.97;5051662;28;20143;-65
2022/04/17 00:18:06;;;;;;;3.60;1.50;;;;;;;2.39;47.11;100218.53;5049959;28;20456;-66
2022/04/17 00:20:32;;;;;;;1.77;1.10;;;;;;;2.53;47.06;100236.50;5051644;28;20021;-63
2022/04/17 00:22:57;;;;;;;1.10;0.47;;;;;;;2.68;45.71;100190.06;5051648;28;20024;-65
2022/04/17 00:25:23;;;;;;;1.17;0.82;;;;;;;2.87;45.35;100231.56;5051190;28;20024;-65
2022/04/17 00:27:48;;;;;;;1.40;1.00;;;;;;;2.64;45.61;100246.59;5050809;28;20060;-64
2022/04/17 00:30:14;;;;;;;4.32;1.13;;;;;;;2.34;47.07;100244.28;5051137;28;20032;-65
2022/04/17 00:32:39;;;;;;;2.33;1.00;;;;;;;2.37;47.09;100254.72;5051578;28;20078;-63
2022/04/17 00:35:06;;;;;;;1.77;0.80;;;;;;;2.87;45.34;100252.72;5050895;28;20025;-63
2022/04/17 00:37:32;;;;;;;0.95;0.60;;;;;;;2.76;45.28;100250.53;5050721;28;20049;-64
2022/04/17 00:39:58;;;;;;;2.13;1.00;;;;;;;2.60;45.76;100238.88;5051027;28;20044;-65
2022/04/17 00:42:23;;;;;;;4.50;1.35;;;;;;;2.42;46.74;100251.91;5051792;28;20032;-66
2022/04/17 00:44:49;;;;;;;2.33;1.20;;;;;;;2.37;47.06;100246.81;5050521;28;20499;-62
2022/04/17 00:47:18;;;;;;;2.03;0.80;;;;;;;2.54;46.14;100253.19;5049620;28;20483;-66
2022/04/17 00:49:45;;;;;;;3.50;0.93;;;;;;;2.52;45.93;100245.31;5051330;28;20417;-63
2022/04/17 00:52:11;;;;;;;2.85;0.90;;;;;;;2.50;46.44;100247.16;5050203;28;20473;-63
2022/04/17 00:54:45;;;;;;;3.55;0.80;;;;;;;2.37;47.31;100260.00;5050598;28;20165;-60
2022/04/17 00:57:12;;;;;;;4.30;1.15;;;;;;;2.25;46.64;100260.50;5050729;28;20120;-63
2022/04/17 00:59:42;;;;;;;1.83;1.00;;;;;;;2.32;46.74;100251.41;5051088;28;20033;-61
2022/04/17 01:02:09;;;;;;;2.22;1.00;;;;;;;2.26;47.17;100256.94;5051152;28;20049;-62
2022/04/17 01:04:34;;;;;;;1.77;0.80;;;;;;;2.26;47.60;100252.50;5050293;28;20029;-63
2022/04/17 01:07:00;;;;;;;4.55;1.08;;;;;;;2.27;47.54;100253.38;5050364;28;20480;-62
2022/04/17 01:09:26;;;;;;;3.28;1.40;;;;;;;2.28;47.36;100255.09;5050016;28;20029;-62
2022/04/17 01:11:52;;;;;;;2.78;1.10;;;;;;;2.12;46.67;100212.59;5050934;28;20028;-62
2022/04/17 01:14:20;;;;;;;2.65;0.95;;;;;;;2.26;47.26;100246.38;5050525;28;20025;-63
2022/04/17 01:16:46;;;;;;;2.85;1.40;;;;;;;2.31;47.03;100249.69;5050356;28;20461;-61
2022/04/17 01:19:11;;;;;;;2.70;1.10;;;;;;;2.20;47.32;100244.84;5050805;28;20118;-60
2022/04/17 01:21:42;;;;;;;2.88;1.00;;;;;;;2.20;47.83;100241.34;5050496;28;20078;-60
2022/04/17 01:26:57;;;;;;;2.40;0.90;;;;;;;2.17;47.01;100247.59;5050003;28;20032;-62
2022/04/17 01:29:32;;;;;;;4.60;1.40;;;;;;;2.23;47.01;100249.16;5048967;28;20618;-60
2022/04/17 01:32:04;;;;;;;;;;;;;;;2.46;47.33;100252.66;5050777;28;20060;-61
2022/04/17 01:34:30;;;;;;;1.60;0.90;;;;;;;2.24;46.76;100251.72;5049982;28;19920;-60
2022/04/17 01:36:56;;;;;;;6.32;1.10;;;;;;;2.11;46.87;100247.84;5050362;28;20041;-62
2022/04/17 01:39:22;;;;;;;3.00;1.30;;;;;;;2.07;47.13;100249.72;5049111;28;20033;-62
2022/04/17 01:41:49;;;;;;;4.18;1.10;;;;;;;2.05;47.65;100254.22;5049696;28;20040;-62
2022/04/17 01:44:18;;;;;;;5.68;1.25;;;;;;;2.01;47.66;100256.09;5048851;28;20029;-64
2022/04/17 01:46:45;;;;;;;4.78;1.33;;;;;;;1.98;47.52;100252.75;5050306;28;20102;-62
2022/04/17 01:49:11;;;;;;;3.10;1.00;;;;;;;1.99;47.45;100257.09;5048683;28;20117;-62
2022/04/17 01:51:39;;;;;;;2.85;0.90;;;;;;;1.96;47.59;100254.56;5050052;28;20124;-62
2022/04/17 01:54:06;;;;;;;2.15;0.93;;;;;;;1.91;47.34;100261.78;5050440;28;20045;-63
2022/04/17 01:56:32;;;;;;;2.75;1.02;;;;;;;1.91;47.48;100257.38;5049997;28;20128;-63
2022/04/17 01:58:58;;;;;;;2.22;0.90;;;;;;;2.05;47.20;100259.50;5050435;28;20036;-62
2022/04/17 02:01:23;;;;;;;4.63;0.93;;;;;;;1.99;46.48;100263.22;5050080;28;20159;-61
2022/04/17 02:03:49;;;;;;;1.25;0.88;;;;;;;2.18;46.64;100259.88;5049668;28;20431;-62
2022/04/17 02:06:15;;;;;;;2.92;0.98;;;;;;;1.79;47.38;100252.53;5049925;28;20029;-62
2022/04/17 02:08:40;;;;;;;2.72;1.27;;;;;;;1.84;47.54;100262.03;5050477;28;20025;-60
2022/04/17 02:11:06;;;;;;;4.55;1.23;;;;;;;1.76;48.04;100258.81;5049825;28;20031;-62
2022/04/17 02:13:34;;;;;;;2.90;1.20;;;;;;;1.70;48.17;100253.78;5050134;28;20051;-62
2022/04/17 02:15:59;;;;;;;2.08;1.08;;;;;;;1.71;48.26;100255.50;5050431;28;20025;-64
2022/04/17 02:18:26;;;;;;;3.78;1.20;;;;;;;1.72;48.09;100246.66;5032214;28;20028;-62
2022/04/17 02:20:53;;;;;;;2.35;1.30;;;;;;;1.71;48.41;100250.22;5048623;28;20033;-62
2022/04/17 02:23:18;;;;;;;3.67;1.13;;;;;;;1.67;47.84;100241.53;5049239;28;20043;-61
2022/04/17 02:25:44;;;;;;;5.35;1.30;;;;;;;1.76;48.14;100252.66;5050045;28;20025;-62
2022/04/17 02:28:09;;;;;;;5.47;1.55;;;;;;;1.71;48.15;100253.69;5050275;28;20111;-62
2022/04/17 02:30:35;;;;;;;5.47;1.40;;;;;;;1.70;48.42;100256.41;5049661;28;20025;-63
2022/04/17 02:33:01;;;;;;;4.45;1.52;;;;;;;1.66;48.57;100258.28;5049749;28;20108;-62
2022/04/17 02:35:27;;;;;;;3.65;1.40;;;;;;;1.69;48.36;100246.78;5050424;28;20378;-63
2022/04/17 02:37:52;;;;;;;3.50;1.23;;;;;;;1.65;48.27;100258.34;5052821;28;20239;-62
2022/04/17 02:40:18;;;;;;;4.43;1.40;;;;;;;1.65;48.25;100255.69;5053035;28;20397;-62
2022/04/17 02:42:43;;;;;;;3.72;1.38;;;;;;;1.65;48.36;100256.56;5053204;28;20029;-61
2022/04/17 02:45:09;;;;;;;2.50;1.30;;;;;;;1.70;47.57;100257.25;5053613;28;20029;-61
2022/04/17 02:47:44;;;;;;;3.42;1.27;;;;;;;1.70;47.99;100261.69;5052539;28;20125;-60
2022/04/17 02:50:10;;;;;;;4.55;1.33;;;;;;;1.60;48.54;100247.09;5053123;28;20523;-61
2022/04/17 02:52:36;;;;;;;1.98;0.93;;;;;;;1.52;48.21;100245.59;5053047;28;20029;-61
2022/04/17 02:55:04;;;;;;;1.65;0.77;;;;;;;1.57;47.90;100248.94;5053701;28;20112;-61
2022/04/17 02:57:30;;;;;;;2.65;1.02;;;;;;;1.62;48.25;100261.09;5053898;28;20037;-63
2022/04/17 02:59:58;;;;;;;1.23;1.10;;;;;;;1.60;48.24;100257.66;5052921;28;20040;-62
2022/04/17 03:07:54;;;;;;;2.90;1.10;;;;;;;1.73;47.00;100248.38;5053156;28;20847;-62
2022/04/17 03:10:20;;;;;;;2.05;0.95;;;;;;;1.78;47.38;100258.75;5052831;28;20040;-63
2022/04/17 03:12:46;;;;;;;3.47;1.27;;;;;;;1.62;48.19;100250.53;5052651;28;20114;-63
2022/04/17 03:15:11;;;;;;;3.83;0.90;;;;;;;1.62;48.14;100250.53;5053178;28;20417;-61
2022/04/17 03:17:37;;;;;;;1.88;0.93;;;;;;;1.66;47.93;100253.00;5052769;28;20033;-63
2022/04/17 03:20:05;;;;;;;3.67;0.80;;;;;;;1.67;48.13;100260.03;5052680;28;20059;-64
2022/04/17 03:22:31;;;;;;;1.90;1.05;;;;;;;1.57;47.79;100233.09;5052530;28;20056;-63
2022/04/17 03:25:00;;;;;;;1.25;0.82;;;;;;;1.86;47.49;100262.81;5052577;28;20473;-62
2022/04/17 03:27:26;;;;;;;1.52;0.57;;;;;;;2.28;46.06;100265.66;5052667;28;20306;-62
2022/04/17 03:29:51;;;;;;;2.78;0.90;;;;;;;2.12;46.38;100271.53;5052405;28;20370;-63
2022/04/17 03:32:17;;;;;;;2.65;0.98;;;;;;;1.99;46.57;100275.59;5052200;28;20024;-62
2022/04/17 03:34:42;;;;;;;1.70;0.88;;;;;;;1.95;46.93;100285.38;5052543;28;20098;-64
2022/04/17 03:37:08;;;;;;;1.80;0.88;;;;;;;1.80;46.53;100234.03;5052043;28;20076;-62
2022/04/17 03:39:34;;;;;;;1.73;0.85;;;;;;;2.31;45.74;100280.56;5052671;28;20040;-63
2022/04/17 03:42:00;;;;;;;2.33;0.90;;;;;;;2.21;45.65;100290.63;5052132;28;20442;-61
2022/04/17 03:44:26;;;;;;;1.55;0.70;;;;;;;2.21;45.70;100285.34;5052152;28;20033;-64
2022/04/17 03:46:51;;;;;;;2.15;0.95;;;;;;;2.07;45.73;100284.06;5052142;28;20491;-64
2022/04/17 03:49:17;;;;;;;3.30;1.05;;;;;;;1.99;46.31;100286.16;5052065;28;20029;-63
2022/04/17 03:51:43;;;;;;;1.98;0.95;;;;;;;2.10;45.63;100288.38;5052111;28;20044;-64
2022/04/17 03:54:09;;;;;;;1.90;1.00;;;;;;;2.23;45.48;100302.81;5052282;28;20025;-62
2022/04/17 03:56:34;;;;;;;4.13;1.40;;;;;;;2.42;45.49;100300.34;5052687;28;20417;-63
2022/04/17 03:59:01;;;;;;;4.20;1.10;;;;;;;2.66;45.06;100297.66;5051698;28;20459;-63
2022/04/17 04:01:27;;;;;;;2.92;1.10;;;;;;;2.83;44.52;100280.22;5051583;28;20091;-63
2022/04/17 04:03:56;;;;;;;3.42;1.20;;;;;;;3.15;44.08;100291.28;5052243;28;20029;-63
2022/04/17 04:06:22;;;;;;;2.92;0.98;;;;;;;3.42;43.12;100289.22;5050782;28;20044;-64
2022/04/17 04:08:49;;;;;;;3.47;0.93;;;;;;;3.75;42.51;100293.09;5051360;28;20037;-62
2022/04/17 04:11:15;;;;;;;5.68;0.90;;;;;;;4.03;41.28;100302.44;5051898;28;20041;-63
2022/04/17 04:13:42;;;;;;;1.85;0.88;;;;;;;4.49;41.31;100306.53;5052156;28;20029;-63
2022/04/17 04:16:08;;;;;;;3.08;0.90;;;;;;;4.96;39.39;100303.34;5050250;28;20109;-63
2022/04/17 04:18:34;;;;;;;5.25;0.98;;;;;;;5.25;38.80;100298.38;5051386;28;20040;-63
2022/04/17 04:21:00;;;;;;;2.33;0.93;;;;;;;5.34;38.79;100302.34;5051806;28;20029;-60
2022/04/17 04:23:26;;;;;;;2.03;0.90;;;;;;;5.45;38.89;100294.72;5052018;28;20115;-61
2022/04/17 04:25:51;;;;;;;1.73;0.98;;;;;;;5.57;38.06;100295.88;5051126;28;20029;-63
2022/04/17 04:31:01;;;;;;;2.60;1.10;;;;;;;5.81;37.50;100321.22;5051760;28;20033;-61
2022/04/17 04:33:27;;;;;;;3.38;1.00;;;;;;;5.83;37.51;100330.84;5051654;28;20052;-64
2022/04/17 04:35:52;;;;;;;2.72;0.88;;;;;;;5.69;37.20;100312.09;5051018;28;20465;-61
2022/04/17 04:38:18;;;;;;;3.75;1.13;;;;;;;5.20;38.41;100308.38;5051018;28;20060;-64
2022/04/17 04:40:44;;;;;;;0.63;0.50;;;;;;;5.40;36.96;100280.78;5051403;28;20064;-63
2022/04/17 04:43:09;;;;;;;0.98;0.80;;;;;;;5.15;38.42;100319.22;5051742;28;20044;-62
2022/04/17 04:49:29;;;;;;;5.43;1.08;;;;;;;5.35;37.76;100300.56;5050931;28;20028;-63
2022/04/17 04:51:04;;;;;;;2.47;0.82;;;;;;;5.80;36.72;100315.06;5051686;28;20029;-63
2022/04/17 04:53:30;;;;;;;3.22;1.10;;;;;;;5.92;37.08;100329.50;5051355;28;20037;-63
2022/04/17 04:55:55;;;;;;;1.42;0.80;;;;;;;6.12;36.58;100312.50;5050741;28;20025;-62
2022/04/17 04:58:21;;;;;;;2.35;1.02;;;;;;;6.13;36.33;100327.50;5050845;28;20112;-65
2022/04/17 05:00:46;;;;;;;9.15;1.10;;;;;;;5.99;35.99;100332.66;5049295;28;20523;-62
2022/04/17 05:03:12;;;;;;;1.60;0.80;;;;;;;5.65;38.63;100313.19;5050885;28;20063;-59
2022/04/17 05:05:37;;;;;;;2.75;1.23;;;;;;;5.55;37.50;100324.31;5050724;28;20029;-62
2022/04/17 05:08:03;;;;;;;1.40;0.80;;;;;;;5.95;39.07;100339.09;5037830;28;20053;-58
2022/04/17 05:10:28;;;;;;;5.03;1.17;;;;;;;6.01;37.65;100323.72;5031097;28;20106;-58
2022/04/17 05:12:54;;;;;;;4.32;1.10;;;;;;;6.29;36.38;100326.69;5030759;28;20037;-60
2022/04/17 05:15:21;;;;;;;5.55;1.27;;;;;;;6.57;35.79;100333.97;5030368;28;20056;-61
2022/04/17 05:17:47;;;;;;;2.00;0.90;;;;;;;7.11;35.28;100322.06;5030715;28;20026;-60
2022/04/17 05:20:15;;;;;;;2.40;1.15;;;;;;;7.57;34.29;100321.16;5029270;28;20454;-54
2022/04/17 05:22:40;;;;;;;5.88;1.38;;;;;;;7.93;33.49;100315.47;5030924;28;20539;-61
2022/04/17 05:25:06;;;;;;;3.72;1.35;;;;;;;8.32;32.55;100306.81;5030682;28;20105;-62
2022/04/17 05:27:32;;;;;;;3.63;1.10;;;;;;;9.22;31.54;100321.53;5030673;28;20072;-63
2022/04/17 05:29:58;;;;;;;5.95;0.95;;;;;;;10.31;29.75;100303.34;5030744;28;20085;-61
2022/04/17 05:32:23;;;;;;;2.55;1.00;;;;;;;12.04;27.59;100302.13;5030421;28;20088;-63
2022/04/17 05:34:49;;;;;;;2.28;1.05;;;;;;;13.81;24.82;100289.44;5030521;28;20040;-62
2022/04/17 05:37:15;;;;;;;1.50;1.00;;;;;;;15.01;22.93;100293.22;5030413;28;20536;-63
2022/04/17 05:39:41;;;;;;;1.73;1.20;;;;;;;15.87;22.16;100284.28;5030633;28;20041;-63
2022/04/17 05:42:08;;;;;;;2.15;1.10;;;;;;;17.23;20.53;100290.94;5030358;28;20034;-62
2022/04/17 05:44:35;;;;;;;3.65;0.88;;;;;;;18.45;19.44;100291.03;5030656;28;20046;-61
2022/04/17 05:47:01;;;;;;;4.47;1.02;;;;;;;18.83;18.52;100311.50;5030407;28;20160;-56
2022/04/17 05:49:27;;;;;;;8.68;1.27;;;;;;;19.29;17.67;100313.78;5030281;28;20100;-62
2022/04/17 05:51:55;;;;;;;4.75;1.15;;;;;;;19.39;17.64;100322.59;5029461;28;20055;-61
2022/04/17 05:54:20;;;;;;;3.58;0.93;;;;;;;19.91;16.81;100313.22;5029694;28;20100;-62
2022/04/17 05:56:46;;;;;;;4.18;1.20;;;;;;;20.67;16.03;100325.53;5030151;28;20041;-62
2022/04/17 05:59:11;;;;;;;3.53;1.13;;;;;;;21.20;15.81;100327.59;5031029;28;20038;-63
2022/04/17 06:01:37;;;;;;;3.70;1.27;;;;;;;21.32;15.41;100334.34;5030499;28;20026;-58
2022/04/17 06:04:03;;;;;;;3.90;1.45;;;;;;;21.78;15.13;100328.00;5030262;28;20030;-57
2022/04/17 06:06:28;;;;;;;2.50;0.85;;;;;;;22.33;14.58;100322.31;5029183;28;20377;-61
2022/04/17 06:08:54;;;;;;;1.88;1.10;;;;;;;22.28;14.21;100330.19;5030794;28;20355;-61
2022/04/17 06:11:19;;;;;;;2.05;1.13;;;;;;;22.77;13.80;100339.66;5032270;28;20465;-61
2022/04/17 06:13:45;;;;;;;5.53;1.20;;;;;;;22.93;13.53;100332.28;5034260;28;20049;-57
2022/04/17 06:16:10;;;;;;;2.80;1.08;;;;;;;23.88;12.78;100334.00;5034604;28;20056;-57
2022/04/17 06:18:35;;;;;;;6.03;1.23;;;;;;;23.05;13.25;100328.00;5034663;28;20455;-57
2022/04/17 06:21:02;;;;;;;2.42;1.27;;;;;;;23.74;12.72;100295.63;5033771;28;20087;-54
2022/04/17 06:23:28;;;;;;;2.70;1.27;;;;;;;23.82;12.82;100330.19;5036291;28;20091;-55
2022/04/17 06:25:53;;;;;;;6.50;1.33;;;;;;;22.39;13.66;100322.56;5034254;28;20037;-54
2022/04/17 06:28:19;;;;;;;5.80;1.30;;;;;;;21.23;13.82;100333.53;5034444;28;20052;-55
2022/04/17 06:30:44;;;;;;;6.70;1.42;;;;;;;18.93;16.21;100331.16;5033976;28;20029;-58
2022/04/17 06:33:10;;;;;;;4.82;1.33;;;;;;;17.29;17.60;100341.72;5033758;28;20380;-59
2022/04/17 06:35:35;;;;;;;7.03;1.40;;;;;;;15.63;19.70;100341.47;5034141;28;20025;-59
2022/04/17 06:38:02;;;;;;;6.28;1.50;;;;;;;13.75;21.76;100336.59;5033879;28;20049;-57
2022/04/17 06:40:36;;;;;;;4.32;1.20;;;;;;;12.58;23.67;100343.47;5033487;28;20053;-56
2022/04/17 06:43:08;;;;;;;8.55;1.40;;;;;;;11.65;24.78;100368.63;5033324;28;20076;-55
2022/04/17 06:45:36;;;;;;;4.85;1.23;;;;;;;11.26;24.94;100368.84;5033648;28;20035;-58
2022/04/17 06:48:34;;;;;;;6.28;1.52;;;;;;;10.15;27.01;100351.78;5032662;28;20125;-56
2022/04/17 06:50:59;;;;;;;9.43;1.73;;;;;;;9.66;27.22;100350.69;5031817;28;20434;-56
2022/04/17 06:53:25;;;;;;;2.30;1.27;;;;;;;9.41;27.51;100363.91;5033146;28;20064;-56
2022/04/17 06:55:52;;;;;;;5.03;1.63;;;;;;;8.82;28.89;100350.88;5033593;28;20156;-55
2022/04/17 06:58:19;;;;;;;6.63;1.60;;;;;;;8.84;29.08;100362.28;5033365;28;20111;-56
2022/04/17 07:00:45;;;;;;;7.65;1.40;;;;;;;9.33;28.30;100347.53;5032916;28;20161;-53
2022/04/17 07:03:11;;;;;;;7.10;1.30;;;;;;;10.02;27.07;100346.44;5032550;28;20041;-58
2022/04/17 07:05:36;;;;;;;9.98;1.45;;;;;;;10.70;26.55;100347.00;5033197;28;20033;-55
2022/04/17 07:08:05;;;;;;;5.90;1.30;;;;;;;11.45;25.57;100349.53;5031874;28;20092;-53
2022/04/17 07:10:32;;;;;;;4.32;1.13;;;;;;;11.52;24.85;100342.72;5032680;28;20037;-57
2022/04/17 07:12:58;;;;;;;3.38;1.27;;;;;;;12.01;24.75;100348.84;5031533;28;20029;-60
2022/04/17 07:15:26;;;;;;;1.23;0.95;;;;;;;11.74;23.92;100333.03;5031634;28;20041;-57
2022/04/17 07:17:53;;;;;;;3.08;1.52;;;;;;;11.82;24.38;100345.84;5032812;28;20037;-57
2022/04/17 07:20:20;;;;;;;1.67;1.00;;;;;;;12.57;23.48;100346.28;5031639;28;20037;-56
2022/04/17 07:22:46;;;;;;;3.50;0.88;;;;;;;13.86;21.72;100347.28;5032022;28;20032;-56
2022/04/17 07:25:12;;;;;;;4.43;1.17;;;;;;;15.59;20.31;100335.50;5032659;28;20109;-56
2022/04/17 07:27:43;;;;;;;4.97;1.20;;;;;;;16.75;18.71;100355.16;5032309;28;20529;-56
2022/04/17 07:30:14;;;;;;;6.40;1.10;;;;;;;16.20;19.00;100352.31;5035774;28;20105;-63
2022/04/17 07:32:42;;;;;;;2.13;0.80;;;;;;;14.91;20.28;100355.22;5032037;28;20044;-58
2022/04/17 07:35:08;;;;;;;4.03;1.30;;;;;;;12.71;22.06;100356.75;5031479;28;20029;-63
2022/04/17 07:37:35;;;;;;;3.45;1.25;;;;;;;11.48;23.67;100347.50;5031748;28;20042;-60
2022/04/17 07:40:07;;;;;;;6.85;1.33;;;;;;;11.04;25.15;100360.56;5032094;28;20040;-62
2022/04/17 07:42:33;;;;;;;2.80;1.00;;;;;;;11.15;25.09;100329.44;5031242;28;20048;-64
2022/04/17 07:44:58;;;;;;;2.33;1.20;;;;;;;11.27;24.23;100346.44;5031990;28;20029;-64
2022/04/17 07:47:24;;;;;;;3.63;1.63;;;;;;;11.40;24.28;100349.03;5031085;28;20029;-62
2022/04/17 07:49:50;;;;;;;3.85;1.10;;;;;;;10.93;24.78;100352.47;5030627;28;20503;-61
2022/04/17 07:52:15;;;;;;;7.50;1.45;;;;;;;10.29;26.51;100351.66;5031266;28;20060;-62
2022/04/17 07:54:41;;;;;;;9.13;1.05;;;;;;;10.50;26.18;100377.91;5032534;28;20389;-62
2022/04/17 07:57:06;;;;;;;2.88;1.02;;;;;;;10.18;25.63;100363.13;5031885;28;20029;-64
2022/04/17 07:59:32;;;;;;;10.45;1.40;;;;;;;9.87;26.71;100362.56;5031364;28;20030;-64
2022/04/17 08:02:11;;;;;;;6.40;1.27;;;;;;;10.76;25.98;100362.59;5031455;28;20029;-65
2022/04/17 08:04:40;;;;;;;4.78;0.95;;;;;;;12.22;24.09;100363.38;5032204;28;20049;-67
2022/04/17 08:07:06;;;;;;;6.97;1.15;;;;;;;11.97;23.67;100362.59;5031290;28;20041;-66
2022/04/17 08:09:31;;;;;;;1.88;1.10;;;;;;;11.20;24.79;100392.44;5046960;28;20025;-65
2022/04/17 08:11:57;;;;;;;6.20;1.10;;;;;;;10.71;25.37;100379.97;5030980;28;20045;-64
2022/04/17 08:14:22;;;;;;;1.13;0.80;;;;;;;10.30;25.54;100390.84;5031231;28;20108;-63
2022/04/17 08:16:48;;;;;;;4.75;1.00;;;;;;;9.52;26.93;100381.88;5031118;28;20021;-65
2022/04/17 08:19:13;;;;;;;4.35;1.10;;;;;;;9.18;27.69;100400.19;5031178;28;20072;-64
2022/04/17 08:21:40;;;;;;;4.65;1.13;;;;;;;8.89;28.03;100389.56;5031256;28;20032;-64
2022/04/17 08:24:06;;;;;;;2.55;1.00;;;;;;;8.73;28.24;100387.88;5031311;28;20037;-65
2022/04/17 08:26:32;;;;;;;6.72;1.15;;;;;;;8.48;28.44;100394.75;5029186;28;20029;-63
2022/04/17 08:28:57;;;;;;;4.95;1.00;;;;;;;8.10;29.54;100362.47;5030690;28;20037;-66
2022/04/17 08:31:23;;;;;;;1.65;0.82;;;;;;;8.56;28.38;100393.44;5031194;28;20029;-60
2022/04/17 08:33:48;;;;;;;2.45;1.27;;;;;;;8.28;29.42;100403.13;5030990;28;20049;-67
2022/04/17 08:36:14;;;;;;;2.85;0.90;;;;;;;8.19;29.28;100397.41;5030463;28;20080;-64
2022/04/17 08:38:42;;;;;;;1.50;0.80;;;;;;;8.23;28.99;100414.09;5030897;28;20132;-62
2022/04/17 08:41:10;;;;;;;7.90;1.33;;;;;;;7.99;29.11;100406.63;5031481;28;20041;-62
2022/04/17 08:43:36;;;;;;;4.65;1.02;;;;;;;7.54;29.98;100408.41;5031359;28;20033;-63
2022/04/17 08:46:03;;;;;;;2.50;1.10;;;;;;;7.55;30.25;100408.34;5030744;28;20596;-64
2022/04/17 08:48:28;;;;;;;3.75;0.90;;;;;;;7.45;30.57;100404.47;5031183;28;20087;-62
2022/04/17 08:50:55;;;;;;;4.28;0.90;;;;;;;7.49;30.29;100400.72;5031125;28;20029;-63
2022/04/17 08:53:22;;;;;;;3.30;0.82;;;;;;;7.56;29.39;100348.75;5031410;28;20036;-69
2022/04/17 08:55:49;;;;;;;1.38;0.55;;;;;;;7.85;29.28;100395.97;5029619;28;20489;-69
2022/04/17 08:58:14;;;;;;;1.67;0.70;;;;;;;7.44;29.60;100350.34;5030655;28;20502;-65
2022/04/17 09:00:40;;;;;;;6.20;1.27;;;;;;;7.34;30.14;100405.09;5030400;28;20032;-63
2022/04/17 09:03:09;;;;;;;3.80;1.08;;;;;;;7.20;30.82;100397.06;5029536;28;20151;-62
2022/04/17 09:05:37;;;;;;;3.47;1.00;;;;;;;7.17;31.57;100384.78;5030456;28;20112;-63
2022/04/17 09:08:16;;;;;;;2.60;1.00;;;;;;;7.88;30.03;100385.94;5030621;28;20167;-60
2022/04/17 09:10:53;;;;;;;3.15;1.23;;;;;;;7.95;29.68;100391.78;5030781;28;20478;-64
2022/04/17 09:13:33;;;;;;;2.78;1.20;;;;;;;7.94;29.83;100365.19;5030125;28;20025;-60
2022/04/17 09:16:03;;;;;;;2.47;1.02;;;;;;;8.16;29.44;100394.91;5030287;28;20163;-64
2022/04/17 09:18:32;;;;;;;2.25;0.70;;;;;;;8.15;29.38;100395.03;5030067;28;20034;-63
2022/04/17 09:21:01;;;;;;;4.32;0.80;;;;;;;7.51;29.35;100312.69;5029165;28;20167;-63
2022/04/17 09:23:37;;;;;;;5.38;0.80;;;;;;;7.81;29.76;100397.94;5030587;28;20033;-59
2022/04/17 09:26:04;;;;;;;4.38;1.10;;;;;;;7.65;29.86;100394.47;5030674;28;20037;-64
2022/04/17 09:28:32;;;;;;;3.50;1.13;;;;;;;7.47;30.81;100405.25;5030650;28;20036;-64
2022/04/17 09:30:59;;;;;;;4.05;0.95;;;;;;;7.56;30.51;100394.06;5030012;28;20033;-61
2022/04/17 09:33:34;;;;;;;3.83;0.90;;;;;;;7.97;30.01;100402.34;5030735;28;20596;-60
2022/04/17 09:36:00;;;;;;;4.75;1.42;;;;;;;7.76;30.10;100408.88;5030517;28;20492;-62
2022/04/17 09:38:30;;;;;;;1.13;0.50;;;;;;;7.97;29.94;100413.03;5030075;28;20045;-56
2022/04/17 09:41:17;;;;;;;5.65;1.38;;;;;;;7.69;30.34;100411.97;5030778;28;20084;-57
2022/04/17 09:43:43;;;;;;;2.92;0.70;;;;;;;7.69;30.32;100394.19;5030072;28;20441;-63
2022/04/17 09:46:10;;;;;;;1.00;0.68;;;;;;;7.89;30.22;100403.66;5033262;28;20026;-59
2022/04/17 09:48:43;;;;;;;5.15;1.60;;;;;;;7.76;30.59;100402.69;5038484;28;20081;-61
2022/04/17 09:51:25;;;;;;;5.35;1.10;;;;;;;7.77;31.00;100412.41;5050021;28;20036;-63
2022/04/17 09:54:01;;;;;;;2.58;1.02;;;;;;;8.00;30.51;100408.34;5035062;28;20033;-64
2022/04/17 09:56:34;;;;;;;4.53;1.20;;;;;;;8.26;30.44;100413.03;5050185;28;20125;-60
2022/04/17 09:59:01;;;;;;;3.70;1.30;;;;;;;8.34;30.29;100413.41;5053838;28;20032;-64
2022/04/17 10:01:27;;;;;;;2.17;1.40;;;;;;;8.36;29.55;100406.19;5040594;28;20116;-55
2022/04/17 10:03:54;;;;;;;5.70;1.30;;;;;;;8.36;30.12;100408.00;5038118;28;20544;-62
2022/04/17 10:06:22;;;;;;;4.72;1.40;;;;;;;8.47;29.59;100413.50;5047891;28;20030;-58
2022/04/17 10:08:48;;;;;;;2.47;0.95;;;;;;;8.32;29.31;100418.00;5044173;28;20925;-63
2022/04/17 10:11:14;;;;;;;3.75;1.13;;;;;;;7.95;29.60;100380.22;5036209;28;20152;-62
2022/04/17 10:13:40;;;;;;;4.70;1.10;;;;;;;7.98;29.71;100412.91;5036072;28;20477;-63
2022/04/17 10:16:11;;;;;;;5.22;1.20;;;;;;;7.91;30.18;100416.91;5040528;28;20025;-63
2022/04/17 10:18:39;;;;;;;4.82;1.40;;;;;;;7.87;30.40;100418.88;5056803;28;20392;-64
2022/04/17 10:21:06;;;;;;;3.20;1.10;;;;;;;7.85;30.71;100415.47;5050546;28;20039;-61
2022/04/17 10:23:36;;;;;;;3.45;1.10;;;;;;;7.88;30.44;100409.94;5051027;28;20361;-63
2022/04/17 10:26:04;;;;;;;6.45;1.30;;;;;;;8.03;30.73;100412.66;5054967;28;20107;-62
2022/04/17 10:28:44;;;;;;;2.15;1.23;;;;;;;8.08;30.56;100426.56;5056712;28;20028;-61
2022/04/17 10:31:19;;;;;;;5.88;1.02;;;;;;;8.11;30.29;100423.69;5055887;28;20040;-59
2022/04/17 10:34:20;;;;;;;11.10;1.38;;;;;;;8.46;29.80;100426.00;5055923;28;20025;-59
2022/04/17 10:37:26;;;;;;;5.28;1.20;;;;;;;8.28;29.99;100424.47;5035890;28;20046;-61
2022/04/17 10:39:54;;;;;;;3.23;1.40;;;;;;;8.00;29.85;100434.16;5035104;28;20045;-63
2022/04/17 10:42:22;;;;;;;5.43;1.30;;;;;;;7.93;29.63;100406.13;5050627;28;20037;-63
2022/04/17 10:45:07;;;;;;;4.50;0.90;;;;;;;7.72;30.28;100387.84;5035682;28;20041;-63
2022/04/17 10:47:33;;;;;;;4.18;1.35;;;;;;;7.92;30.12;100404.41;5035967;28;20496;-64
2022/04/17 10:50:00;;;;;;;4.47;1.15;;;;;;;8.07;29.74;100413.28;5041955;28;20160;-63
2022/04/17 10:52:31;;;;;;;2.95;1.15;;;;;;;8.31;29.39;100410.94;5036300;28;20064;-63
2022/04/17 10:55:08;;;;;;;4.18;1.50;;;;;;;8.07;29.84;100430.16;5036423;28;20025;-62
2022/04/17 10:57:48;;;;;;;2.60;1.25;;;;;;;7.89;30.12;100393.00;5031675;28;20029;-60
2022/04/17 11:00:31;;;;;;;2.75;1.08;;;;;;;8.19;29.20;100424.06;5036396;28;20389;-61
2022/04/17 11:03:00;;;;;;;3.05;0.93;;;;;;;7.93;29.43;100425.66;5052877;28;20133;-63
2022/04/17 11:08:51;;;;;;;2.30;1.00;;;;;;;7.99;29.69;100408.44;5069709;28;20047;-62
2022/04/17 11:11:17;;;;;;;3.13;1.10;;;;;;;8.10;29.82;100411.31;5036958;28;20454;-61
2022/04/17 11:14:07;;;;;;;2.75;1.17;;;;;;;8.56;28.92;100406.78;5031918;28;20115;-62
2022/04/17 11:16:42;;;;;;;6.20;1.25;;;;;;;8.31;28.78;100402.94;5038336;28;20037;-64
2022/04/17 11:19:13;;;;;;;5.97;1.40;;;;;;;8.09;29.57;100400.75;5052843;28;20477;-65
2022/04/17 11:21:50;;;;;;;5.95;0.70;;;;;;;8.55;28.22;100413.91;5052545;28;20036;-63
2022/04/17 11:24:17;;;;;;;1.17;0.75;;;;;;;8.24;28.20;100409.63;5052601;28;20480;-64
2022/04/17 11:26:54;;;;;;;3.83;1.15;;;;;;;7.99;28.92;100395.13;5052391;28;20354;-64
2022/04/17 11:29:56;;;;;;;3.53;1.02;;;;;;;7.87;28.92;100392.22;5052836;28;20358;-64
2022/04/17 11:32:28;;;;;;;2.95;1.20;;;;;;;7.61;29.76;100401.81;5052192;28;20393;-62
2022/04/17 11:34:56;;;;;;;4.45;1.42;;;;;;;7.83;28.94;100412.03;5052214;28;20465;-61
2022/04/17 11:37:23;;;;;;;2.08;1.25;;;;;;;7.98;28.93;100401.41;5051283;28;20446;-64
2022/04/17 11:39:50;;;;;;;2.15;1.27;;;;;;;8.25;28.58;100416.66;5052265;28;20163;-63
2022/04/17 11:42:16;;;;;;;5.50;1.15;;;;;;;8.30;27.87;100403.91;5051394;28;20043;-64
2022/04/17 11:44:46;;;;;;;2.38;1.27;;;;;;;8.13;28.21;100371.13;5050869;28;20033;-66
2022/04/17 11:47:16;;;;;;;3.67;1.35;;;;;;;8.58;28.25;100412.88;5052569;28;20065;-64
2022/04/17 11:49:42;;;;;;;3.85;0.95;;;;;;;8.93;26.74;100412.47;5051930;28;20029;-63
2022/04/17 11:52:17;;;;;;;1.42;0.50;;;;;;;9.15;27.20;100414.59;5052079;28;20033;-62